Bush, Kentucky
Current Conditions -  °F | °C
As of 1:53 AM on Thursday 23 Oct 2014 (Local Time) from KLOZ Reporting Station
Overcast Overcast  
Wind Chill:   Ceiling: 2900
Heat Index:   Visibility: 10mi
Dew Point:   Wind: 5mph
Humidity: 77%   Direction: 20°NNE
Pressure: 30.23"   Gusts: NA
Location:  37.09°N, 83.87°W
Report Text: KLOZ 230553Z AUTO 02004KT 10SM OVC029 09/06 A3023 RMK AO2 SLP236 T00940056 10094 20089 55005
Loading
Personal Weather Stations






























Interactive Weather Map
Tropical Storm Tracking
New forecast layout! Learn more

10-Day Weather Forecast

Advertisements
Track Severe Weather on mobile